Sheridan Park, Washington
Current Conditions -  °F | °C
As of 5:35 AM on Friday 28 Nov 2014 (Local Time) from KPWT Reporting Station
Broken Clouds Broken Clouds  
Wind Chill: 11°   Ceiling: 2000
Heat Index: 11°   Visibility: 8mi
Dew Point: 11°   Wind: 13mph
Humidity: 100%   Direction: 180°S
Pressure: 29.57"   Gusts: NA
Location:  47.6314°N, 122.638°W
Report Text: KPWT 281335Z AUTO 18011KT 8SM FEW006 SCT012 BKN020 11/11 A2957 RMK AO1 P0022
Loading
Personal Weather Stations






























Interactive Weather Map New forecast layout! Learn more

10-Day Weather Forecast

Advertisements
Track Severe Weather on mobile